Pelagos — SZSW — position and weather

sailwx.info

Track history (hours):
 
Tides and Currents Weather Stations Pressure Air Temp Water Temp Dewpoint Dewpoint Depression Visibility Wind Speed Wind Dir Waves Ship Positions

Pelagos

Last reported at 2014-Nov-20 16:27 UTC. Time now 2014-Nov-23 01:00 UTC.
Position N 35°51' E 032°52'.

Length 249 m; draft 8 m.

Type: Ship (hazmat cat C). MMSI: 240335000.

Date/timePositionNaut miles runAvg speedWind from/ knotsBaromVisibWave heightAir tempDewpointWater temp
2014-Nov-20 16:27N 35°51' E 032°52'  
2014-Nov-17 17:12N 36°27' E 014°48'913.6
2014-Nov-17 16:31N 36°28' E 014°37'1313.1
2014-Nov-17 15:34N 36°33' E 014°22'1312.8
2014-Nov-17 14:33N 36°38' E 014°07'1312.7
2014-Nov-17 13:34N 36°46' E 013°55'1313.1
2014-Nov-17 12:33N 36°52' E 013°40'23512.0
2014-Nov-16 17:03N 38°55' E 009°27'611.7
2014-Nov-16 16:33N 38°58' E 009°21'1212.1
2014-Nov-16 15:32N 39°04' E 009°07'3 3.1
2014-Nov-16 14:33N 39°05' E 009°03'0 0.0
2014-Nov-16 13:33N 39°05' E 009°03'0 0.0
2014-Nov-16 12:33N 39°05' E 009°03'0 0.0
2014-Nov-16 11:33N 39°05' E 009°03'0 0.0
2014-Nov-16 10:33N 39°05' E 009°03'0 0.0
2014-Nov-16 09:33N 39°05' E 009°03'0 0.0
2014-Nov-16 08:33N 39°05' E 009°03'0 0.0
2014-Nov-16 07:33N 39°05' E 009°03'0 0.0
2014-Nov-16 06:33N 39°05' E 009°03'0 0.0
2014-Nov-16 05:33N 39°05' E 009°03'0 0.0
2014-Nov-16 04:33N 39°05' E 009°03'0 0.0
2014-Nov-16 03:33N 39°05' E 009°03'0 0.0
2014-Nov-16 02:33N 39°05' E 009°03'0 0.0
2014-Nov-16 01:33N 39°05' E 009°03'0 0.0
2014-Nov-16 00:33N 39°05' E 009°03'0 0.0
2014-Nov-15 23:33N 39°05' E 009°03'0 0.0
2014-Nov-15 22:33N 39°05' E 009°03'0 0.0
2014-Nov-15 21:33N 39°05' E 009°03'0 0.0
2014-Nov-15 20:33N 39°05' E 009°03'0 0.0
2014-Nov-15 19:33N 39°05' E 009°03'0 0.0
2014-Nov-15 18:33N 39°05' E 009°03'0 0.0
2014-Nov-15 17:33N 39°05' E 009°03'0 0.0
2014-Nov-15 16:33N 39°05' E 009°03'0 0.0
2014-Nov-15 15:33N 39°05' E 009°03'0 0.0
2014-Nov-15 14:30N 39°05' E 009°03'0 0.0
2014-Nov-15 13:33N 39°05' E 009°03'0 0.0
2014-Nov-15 12:33N 39°05' E 009°03'0 0.0
2014-Nov-15 11:33N 39°05' E 009°03'0 0.0
2014-Nov-15 10:33N 39°05' E 009°03'0 0.0
2014-Nov-15 09:33N 39°05' E 009°03'1 1.5
2014-Nov-15 08:33N 39°05' E 009°05'0 0.0
2014-Nov-15 07:33N 39°05' E 009°05'0 0.0
2014-Nov-15 06:33N 39°05' E 009°05'0 0.0
2014-Nov-15 05:33N 39°05' E 009°05'0 0.0
2014-Nov-15 04:33N 39°05' E 009°05'0 0.0
2014-Nov-15 03:33N 39°05' E 009°05'0 0.0
2014-Nov-15 02:33N 39°05' E 009°05'0 0.0
2014-Nov-15 01:33N 39°05' E 009°05'0 0.0
2014-Nov-15 00:33N 39°05' E 009°05'0 0.0
2014-Nov-14 23:33N 39°05' E 009°05'0 0.0
2014-Nov-14 22:33N 39°05' E 009°05'0 0.0
2014-Nov-14 21:33N 39°05' E 009°05'0 0.0
2014-Nov-14 20:33N 39°05' E 009°05'0 0.0
2014-Nov-14 19:33N 39°05' E 009°05'0 0.0
2014-Nov-14 18:33N 39°05' E 009°05'0 0.0
2014-Nov-14 17:33N 39°05' E 009°05'0 0.0
2014-Nov-14 16:33N 39°05' E 009°05'0 0.0
2014-Nov-14 15:33N 39°05' E 009°05'0 0.0
2014-Nov-14 14:33N 39°05' E 009°05'0 0.0
2014-Nov-14 12:33N 39°05' E 009°05'0 0.0
2014-Nov-14 11:33N 39°05' E 009°05'0 0.0
2014-Nov-14 10:33N 39°05' E 009°05'0 0.0
2014-Nov-14 09:33N 39°05' E 009°05'0 0.0
2014-Nov-14 08:33N 39°05' E 009°05'0 0.1
2014-Nov-14 07:33N 39°05' E 009°05'0 0.3
2014-Nov-14 06:33N 39°05' E 009°05'2 2.4
2014-Nov-14 05:33N 39°04' E 009°08'7 7.3
2014-Nov-14 04:33N 38°59' E 009°15'1211.7
2014-Nov-14 03:33N 38°53' E 009°28'22810.7
2014-Nov-13 06:20N 36°55' E 013°35'810.3
2014-Nov-13 05:33N 36°51' E 013°44'1010.3
2014-Nov-13 04:33N 36°46' E 013°55'1010.4
2014-Nov-13 03:33N 36°41' E 014°06'1010.5
2014-Nov-13 02:33N 36°36' E 014°18'1110.5
2014-Nov-13 01:33N 36°31' E 014°29'43910.4
2014-Nov-11 07:08N 36°44' E 023°36'610.5
2014-Nov-11 06:32N 36°49' E 023°41'1010.4
2014-Nov-11 05:33N 36°57' E 023°49'1110.6
2014-Nov-11 04:31N 37°06' E 023°56'1010.5
2014-Nov-11 03:33N 37°14' E 024°04'1110.6
2014-Nov-11 02:33N 37°23' E 024°12'1110.5
2014-Nov-11 01:31N 37°31' E 024°21'1010.3
2014-Nov-11 00:33N 37°39' E 024°28'1110.6
2014-Nov-10 23:32N 37°50' E 024°32'2110.6
2014-Nov-10 21:32N 38°09' E 024°43'  
Track history (hours):
 
Tides and Currents Weather Stations Pressure Air Temp Water Temp Dewpoint Dewpoint Depression Visibility Wind Speed Wind Dir Waves Ship Positions

Pelagos

Last reported at 2014-Nov-20 16:27 UTC. Time now 2014-Nov-23 01:00 UTC.
Position N 35°51' E 032°52'.

Length 249 m; draft 8 m.

Type: Ship (hazmat cat C). MMSI: 240335000.

Date/timePositionNaut miles runAvg speedWind from/ knotsBaromVisibWave heightAir tempDewpointWater temp
2014-Nov-20 16:27N 35°51' E 032°52'  
2014-Nov-17 17:12N 36°27' E 014°48'913.6
2014-Nov-17 16:31N 36°28' E 014°37'1313.1
2014-Nov-17 15:34N 36°33' E 014°22'1312.8
2014-Nov-17 14:33N 36°38' E 014°07'1312.7
2014-Nov-17 13:34N 36°46' E 013°55'1313.1
2014-Nov-17 12:33N 36°52' E 013°40'23512.0
2014-Nov-16 17:03N 38°55' E 009°27'611.7
2014-Nov-16 16:33N 38°58' E 009°21'1212.1
2014-Nov-16 15:32N 39°04' E 009°07'3 3.1
2014-Nov-16 14:33N 39°05' E 009°03'0 0.0
2014-Nov-16 13:33N 39°05' E 009°03'0 0.0
2014-Nov-16 12:33N 39°05' E 009°03'0 0.0
2014-Nov-16 11:33N 39°05' E 009°03'0 0.0
2014-Nov-16 10:33N 39°05' E 009°03'0 0.0
2014-Nov-16 09:33N 39°05' E 009°03'0 0.0
2014-Nov-16 08:33N 39°05' E 009°03'0 0.0
2014-Nov-16 07:33N 39°05' E 009°03'0 0.0
2014-Nov-16 06:33N 39°05' E 009°03'0 0.0
2014-Nov-16 05:33N 39°05' E 009°03'0 0.0
2014-Nov-16 04:33N 39°05' E 009°03'0 0.0
2014-Nov-16 03:33N 39°05' E 009°03'0 0.0
2014-Nov-16 02:33N 39°05' E 009°03'0 0.0
2014-Nov-16 01:33N 39°05' E 009°03'0 0.0
2014-Nov-16 00:33N 39°05' E 009°03'0 0.0
2014-Nov-15 23:33N 39°05' E 009°03'0 0.0
2014-Nov-15 22:33N 39°05' E 009°03'0 0.0
2014-Nov-15 21:33N 39°05' E 009°03'0 0.0
2014-Nov-15 20:33N 39°05' E 009°03'0 0.0
2014-Nov-15 19:33N 39°05' E 009°03'0 0.0
2014-Nov-15 18:33N 39°05' E 009°03'0 0.0
2014-Nov-15 17:33N 39°05' E 009°03'0 0.0
2014-Nov-15 16:33N 39°05' E 009°03'0 0.0
2014-Nov-15 15:33N 39°05' E 009°03'0 0.0
2014-Nov-15 14:30N 39°05' E 009°03'0 0.0
2014-Nov-15 13:33N 39°05' E 009°03'0 0.0
2014-Nov-15 12:33N 39°05' E 009°03'0 0.0
2014-Nov-15 11:33N 39°05' E 009°03'0 0.0
2014-Nov-15 10:33N 39°05' E 009°03'0 0.0
2014-Nov-15 09:33N 39°05' E 009°03'1 1.5
2014-Nov-15 08:33N 39°05' E 009°05'0 0.0
2014-Nov-15 07:33N 39°05' E 009°05'0 0.0
2014-Nov-15 06:33N 39°05' E 009°05'0 0.0
2014-Nov-15 05:33N 39°05' E 009°05'0 0.0
2014-Nov-15 04:33N 39°05' E 009°05'0 0.0
2014-Nov-15 03:33N 39°05' E 009°05'0 0.0
2014-Nov-15 02:33N 39°05' E 009°05'0 0.0
2014-Nov-15 01:33N 39°05' E 009°05'0 0.0
2014-Nov-15 00:33N 39°05' E 009°05'0 0.0
2014-Nov-14 23:33N 39°05' E 009°05'0 0.0
2014-Nov-14 22:33N 39°05' E 009°05'0 0.0
2014-Nov-14 21:33N 39°05' E 009°05'0 0.0
2014-Nov-14 20:33N 39°05' E 009°05'0 0.0
2014-Nov-14 19:33N 39°05' E 009°05'0 0.0
2014-Nov-14 18:33N 39°05' E 009°05'0 0.0
2014-Nov-14 17:33N 39°05' E 009°05'0 0.0
2014-Nov-14 16:33N 39°05' E 009°05'0 0.0
2014-Nov-14 15:33N 39°05' E 009°05'0 0.0
2014-Nov-14 14:33N 39°05' E 009°05'0 0.0
2014-Nov-14 12:33N 39°05' E 009°05'0 0.0
2014-Nov-14 11:33N 39°05' E 009°05'0 0.0
2014-Nov-14 10:33N 39°05' E 009°05'0 0.0
2014-Nov-14 09:33N 39°05' E 009°05'0 0.0
2014-Nov-14 08:33N 39°05' E 009°05'0 0.1
2014-Nov-14 07:33N 39°05' E 009°05'0 0.3
2014-Nov-14 06:33N 39°05' E 009°05'2 2.4
2014-Nov-14 05:33N 39°04' E 009°08'7 7.3
2014-Nov-14 04:33N 38°59' E 009°15'1211.7
2014-Nov-14 03:33N 38°53' E 009°28'22810.7
2014-Nov-13 06:20N 36°55' E 013°35'810.3
2014-Nov-13 05:33N 36°51' E 013°44'1010.3
2014-Nov-13 04:33N 36°46' E 013°55'1010.4
2014-Nov-13 03:33N 36°41' E 014°06'1010.5
2014-Nov-13 02:33N 36°36' E 014°18'1110.5
2014-Nov-13 01:33N 36°31' E 014°29'43910.4
2014-Nov-11 07:08N 36°44' E 023°36'610.5
2014-Nov-11 06:32N 36°49' E 023°41'1010.4
2014-Nov-11 05:33N 36°57' E 023°49'1110.6
2014-Nov-11 04:31N 37°06' E 023°56'1010.5
2014-Nov-11 03:33N 37°14' E 024°04'1110.6
2014-Nov-11 02:33N 37°23' E 024°12'1110.5
2014-Nov-11 01:31N 37°31' E 024°21'1010.3
2014-Nov-11 00:33N 37°39' E 024°28'1110.6
2014-Nov-10 23:32N 37°50' E 024°32'2110.6
2014-Nov-10 21:32N 38°09' E 024°43'  

Dump ship's entire track history